Terminal Aerodrome Forecast
Issued by NWS

Home | Current Version | Previous Version | Text Only | Print | Product List | Glossary On
Versions: 1 2 3 4 5 6 7 8 9 10 11 12 13 14 15 16 17 18 19
000
FTPA31 PHFO 280645 AAA
TAFHTO
TAF AMD
PHTO 280645Z 2807/2906 24004KT P6SM VCSH SCT030 BKN050
      TEMPO 2807/2809 3SM SHRA BKN020 OVC040
     FM281800 35007KT 5SM SHRA BR SCT010 BKN025 OVC040
     FM282200 05007KT P6SM VCSH FEW010 BKN025 OVC040=

USA.gov is the U.S. government's official web portal to all federal, state and local government web resources and services.